»·PEaware :: WAT169 KRNO-KSNA

WAT169 :: KRNO-KSNA

FLIGHT INFORMATION

Flight Status: Arrived
Operator:
Walker Air Transport
More flights by this operator :: More flights under this callsign
Pilot: Marty P. (27464)
Aircraft: BEECH AIRCRAFT SUPER KING AIR 350
(B350)
More flights by this aircraft type
Origin: KRNO Reno/Tahoe Intl
United States
Destination: KSNA John Wayne-Orange Co
United States
More flights between these airports :: More routes between these airports
Route: +FMG8 FMG FRA LHS V459 SLI
File this flight plan on PilotEdge
Remarks:
Altitude:
(Current/Filed)
33,000ft
Speed:
(Current/Filed)
220kts
Departed: 01-Nov-20 08:34 AM
Arrived: 01-Nov-20 10:02 AM
Distance/Time
Traveled:
361nm/1:28
Distance/Time
To Go:
Arrived

Flight Plot

Page will automatically refresh every two minutes.

Flight plan parsing failed; only flown route is shown


Map Options




Map Legend


Flown Route
Filed Route
Departure Airport
Arrival Airport
Navaid (VOR, NDB)
Fix

Horizontal Profiles

Position Reports

Time Latitude Longitude Heading Altitude Ground
Speed
01-Nov-20 07:55 39.498558 -119.763718 270 4420ft 0kts
01-Nov-20 07:56 39.498558 -119.763718 270 4420ft 0kts
01-Nov-20 07:57 39.498558 -119.763718 269 4420ft 0kts
01-Nov-20 07:58 39.498558 -119.763718 270 4420ft 0kts
01-Nov-20 07:59 39.498558 -119.763718 269 4420ft 0kts
01-Nov-20 08:00 39.498558 -119.763718 270 4420ft 0kts
01-Nov-20 08:01 39.498558 -119.763718 270 4420ft 0kts
01-Nov-20 08:02 39.498558 -119.763718 270 4420ft 0kts
01-Nov-20 08:03 39.498558 -119.763718 270 4420ft 0kts
01-Nov-20 08:04 39.498558 -119.763718 270 4420ft 0kts
01-Nov-20 08:05 39.498558 -119.763718 270 4420ft 0kts
01-Nov-20 08:06 39.498558 -119.763718 270 4420ft 0kts
01-Nov-20 08:07 39.498558 -119.763718 270 4420ft 0kts
01-Nov-20 08:08 39.498558 -119.763718 270 4420ft 0kts
01-Nov-20 08:09 39.498558 -119.763718 270 4420ft 0kts
01-Nov-20 08:10 39.498558 -119.763718 270 4420ft 0kts
01-Nov-20 08:11 39.498558 -119.763718 270 4420ft 0kts
01-Nov-20 08:11 39.498558 -119.763718 270 4420ft 0kts
01-Nov-20 08:13 39.498558 -119.763718 270 4420ft 0kts
01-Nov-20 08:13 39.498558 -119.763718 270 4420ft 0kts
01-Nov-20 08:15 39.498558 -119.763718 270 4420ft 0kts
01-Nov-20 08:15 39.498558 -119.763718 270 4420ft 0kts
01-Nov-20 08:17 39.498558 -119.763718 270 4420ft 0kts
01-Nov-20 08:17 39.498558 -119.763718 270 4420ft 0kts
01-Nov-20 08:18 39.498558 -119.763718 270 4420ft 0kts
01-Nov-20 08:19 39.498558 -119.763718 270 4420ft 0kts
01-Nov-20 08:20 39.498558 -119.763718 270 4420ft 0kts
01-Nov-20 08:21 39.498558 -119.763718 270 4420ft 0kts
01-Nov-20 08:22 39.498383 -119.764353 271 4420ft 7kts
01-Nov-20 08:23 39.500836 -119.765359 295 4420ft 0kts
01-Nov-20 08:24 39.500837 -119.765359 295 4420ft 0kts
01-Nov-20 08:25 39.500837 -119.765359 295 4420ft 0kts
01-Nov-20 08:26 39.500837 -119.765359 295 4420ft 0kts
01-Nov-20 08:27 39.502535 -119.765720 0 4420ft 14kts
01-Nov-20 08:28 39.506634 -119.765710 0 4420ft 18kts
01-Nov-20 08:29 39.511174 -119.765164 0 4420ft 14kts
01-Nov-20 08:30 39.513748 -119.765687 269 4420ft 0kts
01-Nov-20 08:31 39.513748 -119.765687 269 4420ft 0kts
01-Nov-20 08:32 39.513743 -119.766234 269 4420ft 8kts
01-Nov-20 08:33 39.504949 -119.766774 179 4420ft 111kts
01-Nov-20 08:34 39.462161 -119.768395 182 5568ft 182kts
01-Nov-20 08:35 39.414670 -119.756954 116 7498ft 181kts
01-Nov-20 08:36 39.443013 -119.712330 27 9600ft 190kts
01-Nov-20 08:37 39.475375 -119.669075 111 11424ft 186kts
01-Nov-20 08:38 39.428197 -119.653018 178 13136ft 191kts
01-Nov-20 08:39 39.375456 -119.651897 177 15022ft 192kts
01-Nov-20 08:40 39.322035 -119.650526 177 16859ft 194kts
01-Nov-20 08:41 39.268042 -119.649126 176 18705ft 196kts
01-Nov-20 08:42 39.213419 -119.647720 176 20433ft 199kts
01-Nov-20 08:43 39.157532 -119.646246 176 22121ft 209kts
01-Nov-20 08:44 39.101156 -119.644811 175 25050ft 203kts
01-Nov-20 08:45 39.045555 -119.643359 175 27568ft 200kts
01-Nov-20 08:46 38.990176 -119.641897 174 29698ft 198kts
01-Nov-20 08:47 38.935456 -119.640334 174 31502ft 197kts
01-Nov-20 08:48 38.880919 -119.638873 173 33032ft 196kts
01-Nov-20 08:49 38.821518 -119.637252 175 33498ft 245kts
01-Nov-20 08:50 38.746343 -119.635741 175 33477ft 292kts
01-Nov-20 08:51 38.660432 -119.633917 176 33460ft 318kts
01-Nov-20 08:52 38.571268 -119.631769 176 33458ft 325kts
01-Nov-20 08:53 38.480066 -119.629500 176 33455ft 328kts
01-Nov-20 08:54 38.389019 -119.627264 176 33455ft 327kts
01-Nov-20 08:55 38.298157 -119.625012 176 33455ft 327kts
01-Nov-20 08:56 38.207579 -119.622754 176 33460ft 327kts
01-Nov-20 08:57 38.116922 -119.620501 176 33487ft 326kts
01-Nov-20 08:58 38.026211 -119.618248 176 33512ft 325kts
01-Nov-20 08:59 37.935534 -119.616000 176 33531ft 325kts
01-Nov-20 09:00 37.844931 -119.613766 176 33492ft 327kts
01-Nov-20 09:01 37.753509 -119.611574 176 33422ft 328kts
01-Nov-20 09:02 37.662468 -119.609368 175 33421ft 327kts
01-Nov-20 09:03 37.571551 -119.607140 175 33406ft 327kts
01-Nov-20 09:04 37.480283 -119.604892 175 33294ft 330kts
01-Nov-20 09:05 37.388499 -119.602658 175 33226ft 331kts
01-Nov-20 09:06 37.296836 -119.600446 175 33226ft 329kts
01-Nov-20 09:07 37.205412 -119.598219 175 33225ft 329kts
01-Nov-20 09:08 37.114549 -119.594952 169 33220ft 326kts
01-Nov-20 09:09 37.029288 -119.562538 157 33225ft 322kts
01-Nov-20 09:10 36.945124 -119.526528 157 33225ft 322kts
01-Nov-20 09:11 36.860967 -119.490224 157 33226ft 322kts
01-Nov-20 09:12 36.777006 -119.454026 157 33225ft 323kts
01-Nov-20 09:13 36.691931 -119.417428 156 33223ft 323kts
01-Nov-20 09:14 36.607201 -119.381070 156 33219ft 323kts
01-Nov-20 09:15 36.522236 -119.344683 157 33222ft 323kts
01-Nov-20 09:16 36.437333 -119.308417 157 33247ft 323kts
01-Nov-20 09:17 36.352408 -119.272222 157 33247ft 324kts
01-Nov-20 09:18 36.267250 -119.236016 157 33247ft 324kts
01-Nov-20 09:19 36.181935 -119.199830 157 33247ft 324kts
01-Nov-20 09:20 36.096527 -119.163683 157 33246ft 324kts
01-Nov-20 09:21 36.011377 -119.127729 157 33246ft 324kts
01-Nov-20 09:22 35.926172 -119.091832 157 33245ft 324kts
01-Nov-20 09:23 35.840305 -119.055733 157 33244ft 324kts
01-Nov-20 09:24 35.755123 -119.020012 157 33242ft 324kts
01-Nov-20 09:25 35.669679 -118.984264 158 33222ft 325kts
01-Nov-20 09:26 35.583829 -118.948597 157 31737ft 320kts
01-Nov-20 09:27 35.499947 -118.913658 157 30249ft 321kts
01-Nov-20 09:28 35.415184 -118.878480 157 28766ft 322kts
01-Nov-20 09:29 35.329715 -118.842973 158 27288ft 331kts
01-Nov-20 09:30 35.242001 -118.806775 159 25803ft 332kts
01-Nov-20 09:31 35.154017 -118.770486 159 24313ft 336kts
01-Nov-20 09:32 35.065429 -118.734098 159 22812ft 336kts
01-Nov-20 09:33 34.977038 -118.697865 160 21300ft 334kts
01-Nov-20 09:34 34.889575 -118.662108 160 19791ft 328kts
01-Nov-20 09:35 34.805156 -118.627759 161 18262ft 309kts
01-Nov-20 09:36 34.723732 -118.594565 161 16784ft 313kts
01-Nov-20 09:37 34.643240 -118.554888 154 15274ft 303kts
01-Nov-20 09:38 34.569566 -118.511549 153 13764ft 289kts
01-Nov-20 09:39 34.500398 -118.470980 153 13083ft 256kts
01-Nov-20 09:40 34.434347 -118.432009 153 13100ft 270kts
01-Nov-20 09:41 34.365895 -118.392178 153 13098ft 274kts
01-Nov-20 09:42 34.296995 -118.352122 153 13096ft 275kts
01-Nov-20 09:43 34.228198 -118.312256 154 12682ft 280kts
01-Nov-20 09:44 34.162317 -118.274120 153 11133ft 251kts
01-Nov-20 09:45 34.102672 -118.239296 153 11022ft 235kts
01-Nov-20 09:46 34.044057 -118.205077 153 10987ft 236kts
01-Nov-20 09:47 33.981785 -118.184028 192 10599ft 252kts
01-Nov-20 09:48 33.912529 -118.206135 192 9093ft 262kts
01-Nov-20 09:50 33.842565 -118.224907 170 7080ft 254kts
01-Nov-20 09:51 33.785420 -118.180651 141 4986ft 244kts
01-Nov-20 09:52 33.729967 -118.131036 141 5010ft 251kts
01-Nov-20 09:53 33.673603 -118.080556 141 5007ft 252kts
01-Nov-20 09:54 33.647079 -118.014392 62 4236ft 254kts
01-Nov-20 09:55 33.696787 -117.957725 41 3999ft 233kts
01-Nov-20 09:56 33.748368 -117.915574 27 3074ft 220kts
01-Nov-20 09:57 33.801470 -117.879370 51 1989ft 226kts
01-Nov-20 09:58 33.784806 -117.816081 157 1998ft 217kts
01-Nov-20 09:59 33.735142 -117.835308 212 1216ft 198kts
01-Nov-20 10:00 33.696351 -117.855742 206 408ft 122kts
01-Nov-20 10:01 33.672754 -117.870714 208 61ft 49kts
01-Nov-20 10:02 33.669090 -117.871498 113 61ft 12kts
01-Nov-20 10:03 33.671684 -117.867914 124 61ft 7kts

Navigation Log

Ident Type
Flight plan parsing failed, navigation log unavailable